Time;durP1;ratioP1;P1;durP2;ratioP2;P2;SDS_P1;SDS_P2;PMS_P1;PMS_P2;Temp;Humidity;BMP_temperature;BMP_pressure;BME280_temperature;BME280_humidity;BME280_pressure;Samples;Min_cycle;Max_cycle;Signal;HPM_P1;HPM_P2
2022/02/16 00:01:52;;;;;;;140.92;69.53;;;;;;;0.33;67.54;96986.18;1658127;86;28327;-89
2022/02/16 00:04:19;;;;;;;145.12;70.35;;;;;;;0.38;67.60;96994.14;1657993;86;25810;-89
2022/02/16 00:06:45;;;;;;;140.62;67.58;;;;;;;0.41;67.66;96992.02;1658106;86;26450;-89
2022/02/16 00:09:12;;;;;;;127.45;59.73;;;;;;;0.44;67.71;96991.70;1658068;86;25896;-89
2022/02/16 00:11:38;;;;;;;121.20;56.75;;;;;;;0.47;67.67;96987.91;1658135;86;25286;-90
2022/02/16 00:14:05;;;;;;;100.20;50.83;;;;;;;0.49;67.70;96989.89;1658022;86;27275;-89
2022/02/16 00:16:32;;;;;;;116.33;55.03;;;;;;;0.47;67.72;96983.43;1657964;86;26436;-89
2022/02/16 00:18:58;;;;;;;125.45;57.03;;;;;;;0.41;67.78;96985.88;1658091;86;25833;-89
2022/02/16 00:21:25;;;;;;;121.00;55.75;;;;;;;0.44;67.87;96981.58;1658057;86;26414;-90
2022/02/16 00:23:52;;;;;;;116.75;53.40;;;;;;;0.44;67.96;96989.55;1658126;86;25800;-89
2022/02/16 00:26:18;;;;;;;118.37;57.20;;;;;;;0.42;67.99;96987.54;1657834;86;27423;-90
2022/02/16 00:28:45;;;;;;;115.47;54.08;;;;;;;0.45;68.12;96989.39;1658082;86;25718;-90
2022/02/16 00:31:11;;;;;;;115.15;52.83;;;;;;;0.52;68.12;96985.09;1658130;86;25773;-90
2022/02/16 00:33:39;;;;;;;122.72;57.08;;;;;;;0.55;68.01;96989.27;1658234;86;26300;-90
2022/02/16 00:36:06;;;;;;;113.12;54.08;;;;;;;0.54;68.04;96984.45;1658038;85;25349;-91
2022/02/16 00:38:33;;;;;;;113.03;53.52;;;;;;;0.50;68.10;96974.29;1658192;85;27373;-90
2022/02/16 00:40:59;;;;;;;125.35;56.28;;;;;;;0.47;68.17;96970.65;1657924;86;25791;-89
2022/02/16 00:43:26;;;;;;;116.50;55.65;;;;;;;0.50;68.27;96968.98;1658095;86;25775;-90
2022/02/16 00:45:53;;;;;;;114.85;54.40;;;;;;;0.51;68.30;96970.64;1658160;86;25832;-90
2022/02/16 00:48:20;;;;;;;112.75;53.00;;;;;;;0.51;68.30;96964.00;1658098;86;25695;-90
2022/02/16 00:50:46;;;;;;;107.05;51.95;;;;;;;0.56;68.37;96967.03;1658102;86;27421;-90
2022/02/16 00:53:13;;;;;;;121.47;55.80;;;;;;;0.61;68.39;96966.87;1657864;86;25940;-90
2022/02/16 00:55:39;;;;;;;110.20;52.25;;;;;;;0.64;68.46;96970.54;1658110;86;25772;-90
2022/02/16 00:58:06;;;;;;;110.30;51.48;;;;;;;0.67;68.43;96959.60;1657723;85;25772;-90
2022/02/16 01:00:34;;;;;;;111.28;51.00;;;;;;;0.69;68.47;96964.76;1658160;86;25779;-90
2022/02/16 01:03:01;;;;;;;116.93;53.60;;;;;;;0.74;68.54;96961.11;1657929;86;27433;-91
2022/02/16 01:05:28;;;;;;;113.40;51.83;;;;;;;0.76;68.63;96955.14;1657273;86;25926;-90
2022/02/16 01:07:54;;;;;;;117.70;51.28;;;;;;;0.78;68.60;96963.78;1658082;86;25803;-91
2022/02/16 01:10:21;;;;;;;108.07;48.65;;;;;;;0.78;68.65;96963.78;1658046;86;26473;-90
2022/02/16 01:12:48;;;;;;;90.22;42.93;;;;;;;0.78;68.64;96966.44;1657895;86;25329;-90
2022/02/16 01:15:14;;;;;;;90.50;42.83;;;;;;;0.79;68.69;96965.45;1658001;86;28121;-90
2022/02/16 01:17:41;;;;;;;77.72;39.90;;;;;;;0.82;68.79;96967.80;1657962;86;25273;-90
2022/02/16 01:20:10;;;;;;;81.87;40.05;;;;;;;0.84;68.78;96957.84;1658040;86;25658;-89
2022/02/16 01:22:37;;;;;;;75.03;38.45;;;;;;;0.88;68.78;96951.19;1658088;86;25737;-90
2022/02/16 01:25:04;;;;;;;79.17;38.67;;;;;;;0.88;68.88;96951.19;1658088;86;25791;-90
2022/02/16 01:27:30;;;;;;;78.60;37.67;;;;;;;0.90;68.92;96946.55;1657938;86;28087;-89
2022/02/16 01:29:57;;;;;;;70.85;34.73;;;;;;;0.94;68.94;96943.91;1657913;86;25819;-89
2022/02/16 01:32:24;;;;;;;65.10;33.10;;;;;;;0.99;68.94;96942.08;1657820;86;26278;-90
2022/02/16 01:34:50;;;;;;;70.72;32.93;;;;;;;1.02;68.91;96935.11;1658008;86;25888;-89
2022/02/16 01:37:17;;;;;;;70.57;34.95;;;;;;;1.06;68.92;96929.31;1658064;86;26422;-89
2022/02/16 01:39:43;;;;;;;68.70;34.78;;;;;;;1.08;68.99;96931.81;1658037;86;27367;-89
2022/02/16 01:42:16;;;;;;;71.37;34.13;;;;;;;1.06;69.02;96932.47;1657874;86;25752;-89
2022/02/16 01:44:43;;;;;;;66.47;32.88;;;;;;;1.07;69.12;96930.98;1658057;86;26312;-89
2022/02/16 01:47:10;;;;;;;65.80;35.15;;;;;;;1.06;69.24;96929.31;1658026;86;25689;-88
2022/02/16 01:49:39;;;;;;;71.67;35.20;;;;;;;1.06;69.29;96925.83;1657991;86;25751;-89
2022/02/16 01:52:07;;;;;;;83.20;39.58;;;;;;;1.05;69.40;96919.68;1658000;86;27427;-88
2022/02/16 01:54:34;;;;;;;82.08;38.90;;;;;;;1.06;69.46;96910.71;1657953;86;25947;-88
2022/02/16 01:57:02;;;;;;;72.22;38.20;;;;;;;1.05;69.54;96907.72;1657664;85;25784;-88
2022/02/16 01:59:30;;;;;;;76.22;37.33;;;;;;;1.03;69.71;96907.05;1630867;86;26393;-89
2022/02/16 02:01:58;;;;;;;73.45;35.68;;;;;;;1.00;69.69;96907.36;1656786;86;25305;-89
2022/02/16 02:04:24;;;;;;;74.35;36.35;;;;;;;1.03;69.77;96910.20;1656527;86;27418;-88
2022/02/16 02:06:51;;;;;;;68.07;36.60;;;;;;;1.08;69.78;96903.41;1656861;86;25368;-87
2022/02/16 02:09:17;;;;;;;66.77;36.80;;;;;;;1.14;69.81;96902.41;1656774;86;25758;-88
2022/02/16 02:11:44;;;;;;;68.72;34.40;;;;;;;1.13;69.99;96896.25;1656549;86;25853;-86
2022/02/16 02:14:12;;;;;;;65.70;33.98;;;;;;;1.11;69.99;96892.09;1656861;86;25694;-88
2022/02/16 02:16:41;;;;;;;61.92;35.23;;;;;;;1.14;70.02;96890.44;1656762;86;27560;-88
2022/02/16 02:19:09;;;;;;;69.00;35.30;;;;;;;1.15;70.13;96881.47;1656551;86;25692;-87
2022/02/16 02:21:36;;;;;;;79.37;41.13;;;;;;;1.18;70.11;96879.81;1656723;86;25744;-87
2022/02/16 02:24:04;;;;;;;77.10;41.90;;;;;;;1.18;70.24;96871.84;1656796;86;25704;-87
2022/02/16 02:26:31;;;;;;;65.57;36.75;;;;;;;1.18;70.29;96870.02;1656741;85;25881;-87
2022/02/16 02:28:57;;;;;;;63.33;34.13;;;;;;;1.20;70.27;96868.03;1656814;86;27322;-87
2022/02/16 02:31:36;;;;;;;61.15;34.83;;;;;;;1.23;70.33;96854.88;1656692;86;25803;-87
2022/02/16 02:34:04;;;;;;;60.17;33.83;;;;;;;1.26;70.34;96858.54;1656787;86;25699;-87
2022/02/16 02:36:31;;;;;;;60.33;30.95;;;;;;;1.31;70.33;96854.89;1656760;85;25737;-87
2022/02/16 02:38:57;;;;;;;60.40;33.18;;;;;;;1.31;70.42;96850.91;1658075;85;25845;-87
2022/02/16 02:41:24;;;;;;;60.65;30.65;;;;;;;1.31;70.45;96848.25;1634984;87;27415;-87
2022/02/16 02:43:51;;;;;;;52.23;29.25;;;;;;;1.32;70.52;96848.58;1635118;87;25702;-88
2022/02/16 02:46:19;;;;;;;51.68;28.57;;;;;;;1.31;70.71;96854.89;1635260;87;25851;-87
2022/02/16 02:48:46;;;;;;;54.33;28.10;;;;;;;1.27;70.76;96853.55;1635244;87;25878;-87
2022/02/16 02:51:14;;;;;;;53.02;28.60;;;;;;;1.25;70.89;96851.55;1635268;87;25779;-88
2022/02/16 02:53:42;;;;;;;50.80;27.42;;;;;;;1.24;70.96;96849.89;1635221;87;27545;-87
2022/02/16 02:56:09;;;;;;;47.90;25.40;;;;;;;1.25;70.96;96851.55;1635135;87;25891;-87
2022/02/16 02:58:36;;;;;;;44.67;24.90;;;;;;;1.28;70.95;96856.05;1635703;86;25812;-87
2022/02/16 03:01:03;;;;;;;51.00;26.25;;;;;;;1.31;70.86;96849.08;1636311;87;26247;-88
2022/02/16 03:03:30;;;;;;;42.90;26.02;;;;;;;1.35;70.86;96841.58;1636124;87;25836;-88
2022/02/16 03:05:57;;;;;;;48.10;28.02;;;;;;;1.42;70.83;96845.24;1636026;87;27331;-88
2022/02/16 03:08:24;;;;;;;48.25;27.77;;;;;;;1.43;70.82;96837.59;1636122;87;25780;-87
2022/02/16 03:10:50;;;;;;;43.65;23.12;;;;;;;1.43;70.86;96836.27;1635865;87;25752;-87
2022/02/16 03:13:20;;;;;;;42.65;23.73;;;;;;;1.42;70.90;96831.45;1636187;87;26303;-87
2022/02/16 03:15:52;;;;;;;43.55;24.77;;;;;;;1.41;70.91;96831.11;1636159;87;25769;-88
2022/02/16 03:18:24;;;;;;;48.63;23.73;;;;;;;1.44;70.96;96830.78;1636270;87;28212;-87
2022/02/16 03:20:50;;;;;;;47.83;23.25;;;;;;;1.50;70.98;96827.94;1635884;86;25795;-87
2022/02/16 03:23:18;;;;;;;53.75;24.47;;;;;;;1.53;70.97;96826.27;1636083;87;25447;-87
2022/02/16 03:25:45;;;;;;;44.83;23.15;;;;;;;1.55;70.92;96829.59;1636169;87;26476;-87
2022/02/16 03:28:12;;;;;;;40.10;23.00;;;;;;;1.56;70.83;96829.94;1636164;86;25711;-87
2022/02/16 03:30:38;;;;;;;49.83;24.45;;;;;;;1.58;70.83;96829.23;1636189;86;27492;-87
2022/02/16 03:33:05;;;;;;;66.72;30.45;;;;;;;1.59;70.89;96833.56;1636024;87;25837;-87
2022/02/16 03:35:32;;;;;;;69.65;30.52;;;;;;;1.57;70.94;96830.23;1636189;87;25313;-87
2022/02/16 03:37:59;;;;;;;73.15;32.48;;;;;;;1.58;71.00;96826.58;1635844;87;25740;-87
2022/02/16 03:40:26;;;;;;;54.63;26.60;;;;;;;1.62;71.09;96829.73;1636125;87;26627;-87
2022/02/16 03:42:53;;;;;;;46.45;25.25;;;;;;;1.57;71.10;96830.23;1636151;87;28169;-87
2022/02/16 03:45:19;;;;;;;44.70;22.82;;;;;;;1.60;71.12;96827.24;1636085;87;26418;-87
2022/02/16 03:47:46;;;;;;;45.23;23.27;;;;;;;1.63;71.16;96825.58;1636164;87;25542;-86
2022/02/16 03:50:14;;;;;;;49.03;24.18;;;;;;;1.69;71.10;96844.84;1635441;87;25893;-87
2022/02/16 03:52:40;;;;;;;45.28;23.45;;;;;;;1.70;71.10;96841.19;1635945;87;25805;-87
2022/02/16 03:55:08;;;;;;;45.33;23.85;;;;;;;1.70;71.10;96847.83;1636114;87;27462;-87
2022/02/16 03:57:35;;;;;;;43.90;23.27;;;;;;;1.73;71.19;96848.83;1635808;86;25310;-87
2022/02/16 04:00:05;;;;;;;42.73;22.25;;;;;;;1.70;71.19;96856.31;1634978;86;26425;-87
2022/02/16 04:02:32;;;;;;;45.35;22.70;;;;;;;1.70;71.24;96850.50;1635208;87;26306;-86
2022/02/16 04:04:58;;;;;;;46.95;24.43;;;;;;;1.69;71.22;96841.38;1635224;87;25745;-86
2022/02/16 04:07:25;;;;;;;43.25;23.95;;;;;;;1.71;71.29;96842.84;1635156;87;27485;-86
2022/02/16 04:09:51;;;;;;;44.55;23.05;;;;;;;1.74;71.36;96841.69;1634960;87;25947;-87
2022/02/16 04:12:18;;;;;;;39.75;22.65;;;;;;;1.78;71.33;96835.86;1635144;87;25806;-87
2022/02/16 04:14:44;;;;;;;41.60;23.70;;;;;;;1.84;71.29;96840.16;1635259;87;25774;-86
2022/02/16 04:17:11;;;;;;;41.50;22.35;;;;;;;1.87;71.29;96841.16;1635164;87;25870;-87
2022/02/16 04:19:38;;;;;;;47.60;25.43;;;;;;;1.89;71.30;96844.48;1635079;87;27332;-87
2022/02/16 04:22:04;;;;;;;46.90;24.95;;;;;;;1.94;71.35;96840.78;1634797;87;25853;-88
2022/02/16 04:24:31;;;;;;;47.67;24.75;;;;;;;1.94;71.30;96829.64;1635165;87;25831;-87
2022/02/16 04:26:58;;;;;;;46.18;25.20;;;;;;;1.99;71.32;96834.46;1635138;87;25744;-87
2022/02/16 04:29:24;;;;;;;54.00;28.60;;;;;;;2.01;71.32;96839.95;1635207;87;25680;-86
2022/02/16 04:31:51;;;;;;;71.35;31.82;;;;;;;2.03;71.28;96837.95;1635133;87;28142;-87
2022/02/16 04:34:18;;;;;;;69.37;31.50;;;;;;;2.04;71.25;96836.95;1634996;87;25713;-88
2022/02/16 04:36:44;;;;;;;71.12;33.58;;;;;;;2.05;71.27;96836.45;1635216;87;25759;-87
2022/02/16 04:39:12;;;;;;;68.45;32.05;;;;;;;2.10;71.27;96838.08;1635020;87;25797;-87
2022/02/16 04:41:38;;;;;;;68.62;32.85;;;;;;;2.12;71.25;96845.39;1635108;87;25831;-87
2022/02/16 04:44:06;;;;;;;63.50;31.27;;;;;;;2.14;71.29;96840.73;1635130;87;28182;-87
2022/02/16 04:46:32;;;;;;;61.90;31.07;;;;;;;2.18;71.34;96844.69;1635082;87;25751;-86
2022/02/16 04:48:59;;;;;;;63.50;30.75;;;;;;;2.20;71.40;96835.20;1635121;87;25809;-87
2022/02/16 04:51:25;;;;;;;61.18;28.45;;;;;;;2.23;71.39;96838.86;1635046;87;25725;-87
2022/02/16 04:53:52;;;;;;;57.55;28.23;;;;;;;2.25;71.41;96840.35;1635115;87;25709;-87
2022/02/16 04:56:18;;;;;;;52.17;27.05;;;;;;;2.26;71.38;96830.03;1635108;87;27373;-87
2022/02/16 04:58:46;;;;;;;55.43;26.23;;;;;;;2.29;71.38;96839.02;1634808;87;25891;-86
2022/02/16 05:01:14;;;;;;;54.30;26.87;;;;;;;2.33;71.35;96834.98;1635079;87;25792;-86
2022/02/16 05:03:40;;;;;;;56.40;26.23;;;;;;;2.36;71.43;96834.64;1635153;87;25795;-86
2022/02/16 05:06:07;;;;;;;46.73;25.82;;;;;;;2.37;71.48;96833.64;1635090;87;25792;-87
2022/02/16 05:08:34;;;;;;;43.70;25.25;;;;;;;2.36;71.50;96833.31;1635116;87;27375;-86
2022/02/16 05:11:00;;;;;;;51.30;27.42;;;;;;;2.39;71.53;96828.14;1635056;87;25369;-86
2022/02/16 05:13:27;;;;;;;55.08;27.75;;;;;;;2.39;71.57;96832.97;1635084;87;25849;-87
2022/02/16 05:15:53;;;;;;;61.05;30.97;;;;;;;2.42;71.55;96830.44;1634888;87;25758;-87
2022/02/16 05:18:20;;;;;;;65.55;32.08;;;;;;;2.43;71.57;96832.92;1634906;87;25749;-86
2022/02/16 05:20:46;;;;;;;79.77;36.90;;;;;;;2.39;71.57;96826.31;1635078;87;27396;-86
2022/02/16 05:23:13;;;;;;;81.12;37.38;;;;;;;2.36;71.60;96823.98;1635001;87;25808;-86
2022/02/16 05:25:40;;;;;;;80.87;39.00;;;;;;;2.38;71.66;96829.14;1635279;87;25849;-86
2022/02/16 05:28:06;;;;;;;80.25;36.80;;;;;;;2.40;71.71;96831.13;1635143;87;26528;-86
2022/02/16 05:30:33;;;;;;;74.40;35.28;;;;;;;2.43;71.73;96831.59;1634812;87;25803;-86
2022/02/16 05:33:01;;;;;;;64.75;34.38;;;;;;;2.40;71.81;96833.30;1635053;87;27430;-87
2022/02/16 05:35:28;;;;;;;71.85;34.73;;;;;;;2.36;71.85;96839.97;1634757;87;25699;-87
2022/02/16 05:37:55;;;;;;;64.82;31.87;;;;;;;2.38;71.97;96842.46;1635059;87;25777;-87
2022/02/16 05:40:21;;;;;;;54.50;29.35;;;;;;;2.39;72.05;96842.29;1634873;87;25834;-88
2022/02/16 05:42:48;;;;;;;52.98;28.02;;;;;;;2.39;72.03;96834.30;1635138;87;26484;-87
2022/02/16 05:45:15;;;;;;;50.65;29.30;;;;;;;2.42;72.07;96831.27;1635073;87;27550;-87
2022/02/16 05:47:41;;;;;;;50.95;28.73;;;;;;;2.44;72.06;96831.92;1634963;87;25816;-88
2022/02/16 05:50:09;;;;;;;57.95;32.67;;;;;;;2.46;72.09;96827.26;1635144;87;25761;-88
2022/02/16 05:52:36;;;;;;;52.20;31.00;;;;;;;2.47;72.12;96828.92;1635157;87;25792;-89
2022/02/16 05:55:04;;;;;;;57.83;30.65;;;;;;;2.47;72.15;96826.25;1635084;87;25330;-88
2022/02/16 05:57:32;;;;;;;55.43;29.15;;;;;;;2.49;72.16;96832.24;1635011;87;27355;-88
2022/02/16 05:59:59;;;;;;;48.00;27.93;;;;;;;2.48;72.23;96821.26;1634737;87;25735;-89
2022/02/16 06:02:25;;;;;;;49.45;28.57;;;;;;;2.50;72.36;96823.25;1635052;87;25759;-88
2022/02/16 06:04:52;;;;;;;57.27;30.27;;;;;;;2.49;72.40;96821.59;1635095;87;25896;-89
2022/02/16 06:07:19;;;;;;;67.08;34.40;;;;;;;2.54;72.45;96823.70;1635016;87;25734;-88
2022/02/16 06:09:45;;;;;;;63.98;33.73;;;;;;;2.59;72.43;96813.86;1635134;87;27612;-89
2022/02/16 06:12:12;;;;;;;58.52;31.87;;;;;;;2.61;72.34;96823.84;1634987;87;25732;-89
2022/02/16 06:14:38;;;;;;;59.65;31.70;;;;;;;2.59;72.41;96825.35;1635112;87;25751;-87
2022/02/16 06:17:05;;;;;;;62.20;34.00;;;;;;;2.56;72.45;96824.87;1635120;87;25865;-90
2022/02/16 06:19:32;;;;;;;79.53;42.80;;;;;;;2.54;72.53;96822.37;1635100;87;26553;-90
2022/02/16 06:21:58;;;;;;;78.05;38.83;;;;;;;2.54;72.59;96819.20;1634896;87;27417;-89
2022/02/16 06:24:25;;;;;;;111.68;51.33;;;;;;;2.57;72.64;96816.70;1634966;87;25913;-89
2022/02/16 06:26:51;;;;;;;103.32;53.55;;;;;;;2.54;72.70;96814.37;1635175;87;25751;-88
2022/02/16 06:29:18;;;;;;;89.97;44.55;;;;;;;2.50;72.76;96809.93;1635018;87;25829;-88
2022/02/16 06:31:45;;;;;;;83.20;40.63;;;;;;;2.48;72.72;96805.27;1635116;87;25708;-89
2022/02/16 06:34:11;;;;;;;88.42;44.15;;;;;;;2.51;72.78;96801.44;1635090;87;27410;-89
2022/02/16 06:36:38;;;;;;;102.55;50.43;;;;;;;2.57;72.80;96803.38;1635110;87;25652;-89
2022/02/16 06:39:04;;;;;;;100.65;50.20;;;;;;;2.61;72.84;96794.54;1635047;87;25811;-89
2022/02/16 06:41:31;;;;;;;105.50;50.08;;;;;;;2.63;72.83;96782.70;1635033;87;25850;-89
2022/02/16 06:43:58;;;;;;;107.67;52.62;;;;;;;2.67;72.87;96791.16;1635133;87;25612;-88
2022/02/16 06:46:25;;;;;;;133.67;64.27;;;;;;;2.67;72.91;96791.16;1635082;87;28211;-88
2022/02/16 06:48:51;;;;;;;129.07;62.90;;;;;;;2.70;72.95;96786.81;1634932;87;25982;-89
2022/02/16 06:51:18;;;;;;;115.55;56.18;;;;;;;2.72;73.09;96790.97;1648435;86;25337;-89
2022/02/16 06:53:46;;;;;;;110.00;56.45;;;;;;;2.75;73.13;96787.13;1662036;86;25819;-88
2022/02/16 06:56:13;;;;;;;88.50;44.05;;;;;;;2.79;73.17;96787.07;1662047;85;25815;-89
2022/02/16 06:58:40;;;;;;;69.25;36.63;;;;;;;2.84;73.19;96783.38;1657869;85;27371;-87
2022/02/16 07:01:06;;;;;;;79.35;37.85;;;;;;;2.88;73.07;96783.36;1637567;87;25907;-88
2022/02/16 07:03:33;;;;;;;99.67;45.92;;;;;;;2.92;73.07;96783.31;1637412;87;25808;-89
2022/02/16 07:06:02;;;;;;;130.82;60.45;;;;;;;2.92;72.97;96781.14;1636470;87;25909;-88
2022/02/16 07:08:28;;;;;;;148.78;64.60;;;;;;;2.95;72.93;96784.29;1637557;87;25753;-88
2022/02/16 07:10:54;;;;;;;159.12;72.62;;;;;;;3.02;72.96;96771.09;1637829;87;27422;-88
2022/02/16 07:13:21;;;;;;;145.87;65.17;;;;;;;3.04;72.98;96765.88;1637620;87;25925;-88
2022/02/16 07:15:48;;;;;;;127.78;56.05;;;;;;;3.09;72.97;96762.68;1637672;87;25800;-88
2022/02/16 07:18:15;;;;;;;117.90;54.40;;;;;;;3.13;72.90;96763.48;1637583;87;25822;-89
2022/02/16 07:20:42;;;;;;;117.65;56.60;;;;;;;3.17;72.77;96762.59;1637731;87;25849;-87
2022/02/16 07:23:09;;;;;;;109.78;53.80;;;;;;;3.18;72.77;96758.42;1637548;87;27404;-88
2022/02/16 07:25:36;;;;;;;117.25;53.80;;;;;;;3.22;72.77;96754.39;1637529;87;25764;-89
2022/02/16 07:28:04;;;;;;;128.72;59.48;;;;;;;3.17;72.70;96743.42;1637768;87;25296;-88
2022/02/16 07:30:31;;;;;;;129.57;60.38;;;;;;;3.20;72.76;96739.58;1637657;87;26392;-88
2022/02/16 07:32:58;;;;;;;122.87;58.30;;;;;;;3.24;72.85;96735.55;1637855;87;25782;-88
2022/02/16 07:35:24;;;;;;;138.37;63.38;;;;;;;3.23;72.85;96742.72;1637740;87;27420;-88
2022/02/16 07:37:53;;;;;;;132.72;63.65;;;;;;;3.30;72.91;96752.14;1636758;87;25739;-88
2022/02/16 07:40:20;;;;;;;140.47;66.87;;;;;;;3.36;72.86;96744.77;1637712;87;25766;-88
2022/02/16 07:42:46;;;;;;;138.60;64.58;;;;;;;3.41;72.86;96733.02;1635322;87;26763;-86
2022/02/16 07:45:13;;;;;;;130.00;71.25;;;;;;;3.48;72.85;96745.14;1631061;87;25701;-90
2022/02/16 07:47:40;;;;;;;100.85;52.15;;;;;;;3.53;72.86;96750.23;1630502;87;28280;-90
2022/02/16 07:50:07;;;;;;;89.67;48.80;;;;;;;3.63;72.83;96740.61;1630901;87;26566;-89
2022/02/16 07:52:37;;;;;;;91.65;50.95;;;;;;;3.68;72.80;96742.23;1630151;87;25325;-90
2022/02/16 07:55:04;;;;;;;104.10;55.73;;;;;;;3.74;72.90;96738.84;1630870;87;26461;-88
2022/02/16 07:57:31;;;;;;;102.30;56.10;;;;;;;3.79;72.84;96736.42;1630997;87;25737;-88
2022/02/16 07:59:58;;;;;;;98.58;50.75;;;;;;;3.86;72.85;96738.70;1648365;85;27469;-88
2022/02/16 08:02:24;;;;;;;129.60;60.70;;;;;;;3.92;72.75;96740.61;1661838;85;25808;-89
2022/02/16 08:04:51;;;;;;;98.33;53.40;;;;;;;4.00;72.78;96731.66;1662144;85;26367;-88
2022/02/16 08:07:17;;;;;;;76.00;42.20;;;;;;;4.07;72.72;96725.91;1662158;86;25721;-89
2022/02/16 08:09:44;;;;;;;71.80;39.73;;;;;;;4.17;72.67;96728.27;1662198;85;25770;-89
2022/02/16 08:12:12;;;;;;;72.60;40.20;;;;;;;4.28;72.66;96723.78;1662313;86;28193;-89
2022/02/16 08:14:39;;;;;;;70.62;39.42;;;;;;;4.40;72.69;96719.59;1662038;85;25854;-89
2022/02/16 08:17:06;;;;;;;63.73;35.38;;;;;;;4.49;72.60;96713.10;1662171;86;25870;-88
2022/02/16 08:19:33;;;;;;;52.48;30.20;;;;;;;4.62;72.50;96717.25;1662115;86;25900;-89
2022/02/16 08:22:00;;;;;;;51.48;28.87;;;;;;;4.75;72.31;96709.86;1660089;86;25753;-89
2022/02/16 08:24:26;;;;;;;45.92;27.75;;;;;;;4.88;71.96;96719.85;1656935;86;27438;-89
2022/02/16 08:26:54;;;;;;;46.42;27.85;;;;;;;5.00;71.83;96715.64;1657116;86;25832;-87
2022/02/16 08:29:25;;;;;;;47.05;27.45;;;;;;;5.11;71.65;96708.42;1657162;86;25901;-89
2022/02/16 08:31:52;;;;;;;41.35;26.12;;;;;;;5.23;71.50;96709.54;1657160;86;26538;-87
2022/02/16 08:34:20;;;;;;;39.53;24.37;;;;;;;5.33;71.36;96711.36;1657145;86;25803;-88
2022/02/16 08:36:55;;;;;;;37.03;22.22;;;;;;;5.43;71.12;96709.16;1656898;86;25937;-88
2022/02/16 08:39:17;;;;;;;38.98;24.18;;;;;;;5.53;70.95;96708.83;1658576;86;25417;-89
2022/02/16 08:41:43;;;;;;;37.20;22.55;;;;;;;5.62;70.78;96713.51;1662298;86;25741;-88
2022/02/16 08:44:10;;;;;;;38.70;23.25;;;;;;;5.71;70.64;96705.63;1662507;86;26396;-88
2022/02/16 08:46:37;;;;;;;36.60;22.20;;;;;;;5.80;70.51;96701.75;1662044;85;26182;-88
2022/02/16 08:49:03;;;;;;;33.35;19.85;;;;;;;5.90;70.44;96694.74;1659276;86;27432;-88
2022/02/16 08:51:30;;;;;;;32.55;19.00;;;;;;;5.97;70.10;96691.05;1656774;85;25821;-88
2022/02/16 08:53:59;;;;;;;34.45;20.70;;;;;;;6.06;69.92;96693.04;1656872;85;26211;-87
2022/02/16 08:56:29;;;;;;;33.15;19.82;;;;;;;6.12;69.84;96685.55;1656959;86;25804;-88
2022/02/16 08:58:54;;;;;;;31.95;19.82;;;;;;;6.22;69.69;96677.95;1656689;86;25736;-86
2022/02/16 09:01:21;;;;;;;32.70;20.08;;;;;;;6.29;69.52;96669.41;1656684;86;27539;-87
2022/02/16 09:03:47;;;;;;;33.48;20.05;;;;;;;6.30;69.37;96671.06;1656787;85;25858;-87
2022/02/16 09:06:14;;;;;;;29.27;18.82;;;;;;;6.35;69.22;96673.14;1657100;86;25791;-87
2022/02/16 09:08:41;;;;;;;30.32;19.40;;;;;;;6.37;69.08;96661.71;1659149;86;26021;-86
2022/02/16 09:11:08;;;;;;;27.82;17.67;;;;;;;6.45;69.10;96654.81;1661932;85;25723;-86
2022/02/16 09:13:34;;;;;;;31.15;18.85;;;;;;;6.56;68.91;96658.23;1662119;86;27366;-87
2022/02/16 09:16:01;;;;;;;29.48;18.65;;;;;;;6.86;69.44;96646.61;1662071;86;25850;-87
2022/02/16 09:18:28;;;;;;;26.82;17.62;;;;;;;7.33;69.14;96641.50;1662148;85;25887;-88
2022/02/16 09:20:54;;;;;;;28.65;18.27;;;;;;;7.68;68.62;96630.45;1661006;85;26795;-87
2022/02/16 09:23:21;;;;;;;26.87;16.67;;;;;;;8.12;68.34;96624.27;1657449;86;25794;-86
2022/02/16 09:25:48;;;;;;;23.73;15.55;;;;;;;8.57;67.26;96623.73;1657527;86;27373;-87
2022/02/16 09:28:15;;;;;;;27.13;15.32;;;;;;;8.81;66.76;96618.08;1661953;86;25837;-87
2022/02/16 09:30:42;;;;;;;23.22;14.70;;;;;;;9.15;66.42;96623.47;1661970;86;25831;-86
2022/02/16 09:33:08;;;;;;;21.37;14.50;;;;;;;9.38;65.87;96617.75;1661966;86;26043;-86
2022/02/16 09:35:35;;;;;;;23.32;15.35;;;;;;;9.68;65.17;96617.00;1662101;86;25889;-88
2022/02/16 09:38:02;;;;;;;24.15;15.00;;;;;;;9.93;65.02;96617.73;1661795;85;27616;-87
2022/02/16 09:40:30;;;;;;;23.57;15.32;;;;;;;10.34;64.84;96610.29;1661960;86;25488;-90
2022/02/16 09:43:02;;;;;;;19.37;12.75;;;;;;;10.75;64.00;96609.98;1662136;86;25795;-87
2022/02/16 09:45:31;;;;;;;21.27;12.68;;;;;;;10.92;62.92;96610.96;1660230;86;26092;-88
2022/02/16 09:47:59;;;;;;;15.50;11.33;;;;;;;11.15;62.90;96613.69;1661650;85;25746;-90
2022/02/16 09:50:26;;;;;;;18.07;10.65;;;;;;;11.51;62.58;96615.85;1661808;86;27467;-89
2022/02/16 09:52:52;;;;;;;15.90;10.60;;;;;;;11.74;61.97;96613.12;1641027;86;25812;-87
2022/02/16 09:55:19;;;;;;;15.68;10.20;;;;;;;11.84;61.41;96612.01;1661946;86;25794;-89
2022/02/16 09:57:46;;;;;;;19.70;13.15;;;;;;;12.02;61.44;96613.74;1661855;85;25990;-86
2022/02/16 10:00:15;;;;;;;20.90;12.00;;;;;;;12.15;60.19;96604.53;1660393;85;26446;-87
2022/02/16 10:02:45;;;;;;;23.42;12.03;;;;;;;12.18;60.03;96604.88;1658159;86;27481;-87
2022/02/16 10:05:15;;;;;;;19.02;12.78;;;;;;;12.25;59.40;96596.61;1674196;84;25764;-86
2022/02/16 10:07:49;;;;;;;19.40;13.10;;;;;;;12.27;59.09;96587.72;1666780;86;25854;-94
2022/02/16 10:10:29;;;;;;;20.85;13.70;;;;;;;12.36;59.01;96588.97;1633064;87;26010;-96
2022/02/16 10:12:58;;;;;;;21.73;14.70;;;;;;;12.33;58.01;96585.92;1667577;85;25671;-95
2022/02/16 10:15:40;;;;;;;20.12;13.55;;;;;;;12.41;57.80;96581.48;1666539;85;27406;-94
2022/02/16 10:18:12;;;;;;;22.45;13.88;;;;;;;12.51;57.52;96581.14;1666458;86;25852;-94
2022/02/16 10:20:39;;;;;;;26.25;15.80;;;;;;;12.71;57.31;96574.42;1632992;87;25982;-92
2022/02/16 10:23:06;;;;;;;21.10;14.80;;;;;;;12.78;56.75;96575.92;1666283;85;26168;-93
2022/02/16 10:25:35;;;;;;;22.60;14.60;;;;;;;13.03;56.73;96574.17;1665917;86;25739;-93
2022/02/16 10:28:15;;;;;;;21.97;14.58;;;;;;;13.21;56.33;96563.09;1666229;85;28120;-90
2022/02/16 10:31:03;;;;;;;22.70;13.45;;;;;;;13.33;55.78;96554.32;1633118;87;26012;-89
2022/02/16 10:33:42;;;;;;;22.77;14.05;;;;;;;13.58;55.44;96557.10;1666295;85;25706;-88
2022/02/16 10:36:14;;;;;;;19.65;13.43;;;;;;;13.99;55.36;96555.20;1666595;85;26920;-93
2022/02/16 10:39:00;;;;;;;22.25;15.30;;;;;;;14.00;54.20;96545.99;1666512;86;25845;-96
2022/02/16 10:41:31;;;;;;;19.12;12.85;;;;;;;13.84;53.77;96535.20;1633047;87;27407;-93
2022/02/16 10:43:59;;;;;;;16.45;12.28;;;;;;;13.69;53.71;96540.72;1665007;85;25887;-93
2022/02/16 10:46:31;;;;;;;17.05;11.38;;;;;;;13.54;53.52;96543.75;1662057;86;25785;-94
2022/02/16 10:49:18;;;;;;;17.23;10.20;;;;;;;13.33;53.10;96530.46;1625478;87;26000;-94
2022/02/16 10:51:47;;;;;;;14.38;10.63;;;;;;;13.15;53.02;96522.09;1619064;87;25830;-95
2022/02/16 10:54:17;;;;;;;14.05;8.43;;;;;;;12.97;52.87;96521.78;1626121;87;27480;-93
2022/02/16 10:56:48;;;;;;;13.30;9.35;;;;;;;12.84;51.93;96515.34;1666660;86;25860;-95
2022/02/16 10:59:16;;;;;;;14.90;8.95;;;;;;;12.85;52.97;96505.34;1635901;87;25763;-92
2022/02/16 11:01:44;;;;;;;11.30;7.90;;;;;;;13.15;52.72;96497.70;1656439;85;26025;-92
2022/02/16 11:04:14;;;;;;;11.85;8.48;;;;;;;13.23;51.82;96491.85;1662948;85;25707;-92
2022/02/16 11:06:47;;;;;;;10.55;7.25;;;;;;;13.06;52.26;96492.91;1662758;85;27326;-93
2022/02/16 11:09:20;;;;;;;12.53;7.42;;;;;;;12.94;52.30;96482.17;1662191;86;25779;-94
2022/02/16 11:11:53;;;;;;;12.55;7.97;;;;;;;12.89;51.93;96480.77;1656972;86;25775;-90
2022/02/16 11:14:28;;;;;;;10.53;7.75;;;;;;;12.79;51.62;96475.20;1662405;85;26057;-95
2022/02/16 11:17:00;;;;;;;9.65;7.10;;;;;;;12.71;51.84;96466.12;1662720;85;25899;-94
2022/02/16 11:19:32;;;;;;;12.33;8.33;;;;;;;12.75;51.89;96460.50;1663118;86;27386;-88
2022/02/16 11:22:22;;;;;;;10.45;8.10;;;;;;;12.58;51.21;96455.09;1661749;86;25859;-91
2022/02/16 11:24:50;;;;;;;9.55;6.92;;;;;;;12.65;51.58;96441.40;1656371;85;25695;-91